Time;durP1;ratioP1;P1;durP2;ratioP2;P2;SDS_P1;SDS_P2;PMS_P1;PMS_P2;Temp;Humidity;BMP_temperature;BMP_pressure;BME280_temperature;BME280_humidity;BME280_pressure;Samples;Min_cycle;Max_cycle;Signal;HPM_P1;HPM_P2
2021/05/25 00:01:04;;;;;;;3.10;1.00;;;;;;;;;;3536246;40;20145;-66
2021/05/25 00:03:30;;;;;;;2.22;0.70;;;;;;;;;;3535556;40;20034;-66
2021/05/25 00:05:56;;;;;;;1.17;0.80;;;;;;;;;;3538125;40;20035;-67
2021/05/25 00:08:22;;;;;;;1.80;0.93;;;;;;;;;;3538642;40;20669;-67
2021/05/25 00:10:48;;;;;;;1.98;0.93;;;;;;;;;;3535070;40;20405;-67
2021/05/25 00:13:14;;;;;;;5.70;1.20;;;;;;;;;;3537361;40;20045;-67
2021/05/25 00:15:40;;;;;;;1.38;0.88;;;;;;;;;;3540140;40;20104;-67
2021/05/25 00:18:07;;;;;;;2.00;1.13;;;;;;;;;;3534833;40;20043;-67
2021/05/25 00:20:33;;;;;;;4.05;1.13;;;;;;;;;;3537794;40;20030;-67
2021/05/25 00:22:59;;;;;;;4.68;0.95;;;;;;;;;;3536896;40;20030;-67
2021/05/25 00:25:25;;;;;;;2.05;1.15;;;;;;;;;;3534486;40;20049;-67
2021/05/25 00:27:53;;;;;;;1.83;1.15;;;;;;;;;;3535021;40;20041;-67
2021/05/25 00:30:20;;;;;;;2.78;0.90;;;;;;;;;;3538378;40;20043;-66
2021/05/25 00:32:47;;;;;;;5.10;1.25;;;;;;;;;;3536456;40;20023;-67
2021/05/25 00:35:13;;;;;;;5.45;1.45;;;;;;;;;;3535958;40;20045;-66
2021/05/25 00:37:40;;;;;;;2.70;1.10;;;;;;;;;;3539234;40;20045;-67
2021/05/25 00:40:06;;;;;;;4.88;1.00;;;;;;;;;;3532077;40;20047;-67
2021/05/25 00:42:32;;;;;;;3.15;1.27;;;;;;;;;;3532777;40;20035;-67
2021/05/25 00:44:59;;;;;;;2.67;1.10;;;;;;;;;;3536791;40;20079;-67
2021/05/25 00:47:28;;;;;;;1.65;1.20;;;;;;;;;;3535351;40;20046;-67
2021/05/25 00:49:54;;;;;;;4.72;1.20;;;;;;;;;;3539155;40;20042;-67
2021/05/25 00:52:20;;;;;;;7.78;1.58;;;;;;;;;;3540001;40;20136;-67
2021/05/25 00:54:46;;;;;;;4.20;1.23;;;;;;;;;;3533709;40;20031;-67
2021/05/25 00:57:12;;;;;;;3.75;1.67;;;;;;;;;;3535535;40;20062;-67
2021/05/25 00:59:39;;;;;;;2.30;1.40;;;;;;;;;;3534667;40;20049;-67
2021/05/25 01:02:04;;;;;;;2.90;1.40;;;13.00;99.90;;;;;;3539221;40;20030;-67
2021/05/25 01:04:31;;;;;;;6.07;1.50;;;;;;;;;;3539987;40;20042;-67
2021/05/25 01:06:57;;;;;;;2.95;1.35;;;12.90;99.90;;;;;;3535146;40;20597;-67
2021/05/25 01:09:23;;;;;;;6.32;1.20;;;;;;;;;;3535023;40;20042;-67
2021/05/25 01:11:50;;;;;;;4.20;1.38;;;;;;;;;;3536634;40;20049;-66
2021/05/25 01:14:16;;;;;;;2.15;1.60;;;;;;;;;;3534919;40;20054;-66
2021/05/25 01:16:41;;;;;;;3.50;1.60;;;12.10;99.90;;;;;;3533153;40;20083;-67
2021/05/25 01:19:08;;;;;;;3.75;1.33;;;;;;;;;;3540593;40;20037;-67
2021/05/25 01:21:37;;;;;;;7.55;1.90;;;;;;;;;;3538437;40;20125;-66
2021/05/25 01:24:04;;;;;;;3.55;1.50;;;;;;;;;;3535781;40;20042;-67
2021/05/25 01:26:31;;;;;;;2.50;1.40;;;;;;;;;;3537443;40;20431;-67
2021/05/25 01:28:56;;;;;;;5.43;1.90;;;12.40;99.90;;;;;;3539291;40;20030;-67
2021/05/25 01:31:22;;;;;;;6.88;2.00;;;;;;;;;;3537643;40;20034;-67
2021/05/25 01:33:48;;;;;;;6.25;1.88;;;;;;;;;;3534671;40;20031;-67
2021/05/25 01:36:16;;;;;;;7.72;1.80;;;;;;;;;;3535449;40;20041;-67
2021/05/25 01:38:42;;;;;;;4.63;1.35;;;;;;;;;;3535256;40;20038;-67
2021/05/25 01:41:09;;;;;;;3.83;1.52;;;;;;;;;;3537864;40;20034;-67
2021/05/25 01:43:39;;;;;;;3.20;1.73;;;;;;;;;;3533539;40;20050;-67
2021/05/25 01:46:05;;;;;;;1.60;1.30;;;;;;;;;;3535266;40;20071;-67
2021/05/25 01:48:31;;;;;;;7.55;1.65;;;;;;;;;;3535658;40;20629;-67
2021/05/25 01:50:57;;;;;;;4.13;1.73;;;;;;;;;;3537120;40;20084;-66
2021/05/25 01:53:28;;;;;;;3.25;1.55;;;;;;;;;;3531531;40;20042;-66
2021/05/25 01:55:56;;;;;;;3.75;1.95;;;;;;;;;;3539898;40;20042;-59
2021/05/25 01:58:22;;;;;;;6.97;2.50;;;;;;;;;;3537464;40;20054;-59
2021/05/25 02:00:59;;;;;;;5.18;1.67;;;;;;;;;;3536888;40;20121;-59
2021/05/25 02:03:25;;;;;;;5.15;1.75;;;;;;;;;;3534745;40;20031;-59
2021/05/25 02:05:52;;;;;;;4.30;1.83;;;;;;;;;;3538357;40;20057;-59
2021/05/25 02:08:18;;;;;;;3.38;1.58;;;;;;;;;;3537052;40;20045;-59
2021/05/25 02:10:49;;;;;;;5.35;1.73;;;11.50;99.90;;;;;;3538269;40;20047;-59
2021/05/25 02:13:18;;;;;;;3.67;2.10;;;12.50;99.90;;;;;;3538014;40;20054;-59
2021/05/25 02:15:47;;;;;;;4.50;1.60;;;12.50;99.90;;;;;;3538217;40;20062;-59
2021/05/25 02:18:15;;;;;;;6.93;2.00;;;12.50;99.90;;;;;;3534373;40;20079;-60
2021/05/25 02:20:43;;;;;;;2.33;1.60;;;12.50;99.90;;;;;;3532421;40;20038;-67
2021/05/25 02:23:09;;;;;;;5.80;1.65;;;12.10;99.90;;;;;;3535988;40;20042;-66
2021/05/25 02:25:35;;;;;;;3.83;1.60;;;12.40;99.90;;;;;;3538241;40;20038;-65
2021/05/25 02:28:02;;;;;;;4.60;2.40;;;13.00;99.90;;;;;;3540087;40;20494;-66
2021/05/25 02:30:28;;;;;;;4.65;2.30;;;;;;;;;;3539418;40;20042;-67
2021/05/25 02:32:56;;;;;;;3.00;1.55;;;12.40;99.90;;;;;;3537670;40;20093;-66
2021/05/25 02:35:22;;;;;;;6.63;1.83;;;13.00;99.90;;;;;;3537165;40;20035;-66
2021/05/25 02:37:49;;;;;;;3.47;1.88;;;12.30;99.90;;;;;;3537616;40;20046;-66
2021/05/25 02:40:15;;;;;;;4.80;2.20;;;;;;;;;;3536182;40;20038;-66
2021/05/25 02:42:41;;;;;;;2.38;1.83;;;;;;;;;;3536558;40;20031;-66
2021/05/25 02:45:07;;;;;;;2.08;1.73;;;;;;;;;;3540474;40;20141;-66
2021/05/25 02:47:34;;;;;;;4.43;2.10;;;12.10;99.90;;;;;;3538938;40;20027;-68
2021/05/25 02:50:06;;;;;;;5.28;1.90;;;;;;;;;;3532673;40;20066;-70
2021/05/25 02:52:41;;;;;;;4.32;2.00;;;12.40;99.90;;;;;;3536258;40;20038;-66
2021/05/25 02:55:10;;;;;;;4.22;1.85;;;12.30;99.90;;;;;;3537012;40;20042;-67
2021/05/25 02:57:36;;;;;;;18.83;7.88;;;12.30;99.90;;;;;;3533264;40;20039;-66
2021/05/25 03:00:11;;;;;;;2.70;1.90;;;12.00;99.90;;;;;;3538449;40;20130;-66
2021/05/25 03:02:37;;;;;;;7.57;2.72;;;;;;;;;;3537988;40;20039;-66
2021/05/25 03:05:05;;;;;;;4.03;2.42;;;11.90;99.90;;;;;;3539545;40;20417;-66
2021/05/25 03:07:31;;;;;;;22.65;11.85;;;11.20;99.90;;;;;;3538753;40;20042;-65
2021/05/25 03:09:57;;;;;;;5.95;2.50;;;;;;;;;;3540589;40;20038;-66
2021/05/25 03:12:23;;;;;;;4.55;2.35;;;;;;;;;;3536500;40;20054;-67
2021/05/25 03:14:50;;;;;;;6.47;2.03;;;11.30;99.90;;;;;;3540680;40;20130;-67
2021/05/25 03:17:16;;;;;;;4.47;2.10;;;;;;;;;;3540060;40;20031;-69
2021/05/25 03:19:42;;;;;;;6.22;2.00;;;;;;;;;;3536392;40;20034;-67
2021/05/25 03:22:08;;;;;;;7.93;2.25;;;11.80;99.90;;;;;;3538922;40;20038;-67
2021/05/25 03:24:34;;;;;;;5.47;2.03;;;;;;;;;;3537146;40;20035;-68
2021/05/25 03:27:00;;;;;;;3.10;1.85;;;;;;;;;;3539132;40;20034;-68
2021/05/25 03:29:26;;;;;;;9.25;2.20;;;;;;;;;;3540461;40;20037;-69
2021/05/25 03:31:52;;;;;;;8.95;2.90;;;;;;;;;;3541408;40;20046;-71
2021/05/25 03:34:18;;;;;;;4.65;2.03;;;;;;;;;;3538602;40;20042;-67
2021/05/25 03:36:44;;;;;;;3.70;2.05;;;;;;;;;;3529639;40;20027;-67
2021/05/25 03:39:11;;;;;;;2.65;1.88;;;;;;;;;;3538901;40;20034;-67
2021/05/25 03:41:37;;;;;;;4.30;2.45;;;;;;;;;;3540569;40;20041;-67
2021/05/25 03:44:03;;;;;;;6.25;2.17;;;;;;;;;;3540368;40;20499;-68
2021/05/25 03:46:29;;;;;;;2.25;1.80;;;11.70;99.90;;;;;;3537759;40;20037;-67
2021/05/25 03:48:55;;;;;;;5.18;1.95;;;;;;;;;;3542485;40;20054;-67
2021/05/25 03:51:21;;;;;;;5.50;2.40;;;;;;;;;;3538787;40;20042;-68
2021/05/25 03:53:49;;;;;;;4.55;2.40;;;;;;;;;;3537909;40;20042;-68
2021/05/25 03:56:18;;;;;;;6.43;2.13;;;;;;;;;;3539464;40;20049;-68
2021/05/25 04:01:13;;;;;;;4.90;2.05;;;13.10;99.90;;;;;;3534181;40;20039;-67
2021/05/25 04:03:39;;;;;;;8.63;2.10;;;;;;;;;;3534460;40;20039;-68
2021/05/25 04:06:06;;;;;;;8.88;2.40;;;;;;;;;;3539342;40;20046;-68
2021/05/25 04:08:32;;;;;;;4.32;2.28;;;;;;;;;;3538624;40;20168;-68
2021/05/25 04:10:57;;;;;;;3.15;1.92;;;13.30;99.90;;;;;;3540991;40;20038;-68
2021/05/25 04:13:24;;;;;;;9.30;2.10;;;;;;;;;;3541866;40;20046;-68
2021/05/25 04:15:52;;;;;;;4.88;1.88;;;12.70;99.90;;;;;;3540840;40;20074;-68
2021/05/25 04:18:18;;;;;;;3.92;1.90;;;13.00;99.90;;;;;;3541376;40;20128;-68
2021/05/25 04:20:44;;;;;;;14.43;5.22;;;12.80;99.90;;;;;;3538414;40;20128;-68
2021/05/25 04:23:10;;;;;;;3.70;2.20;;;;;;;;;;3538733;40;20031;-67
2021/05/25 04:25:36;;;;;;;10.73;5.22;;;12.10;99.90;;;;;;3541780;40;20042;-68
2021/05/25 04:28:02;;;;;;;3.60;2.13;;;12.20;99.90;;;;;;3541134;40;20133;-68
2021/05/25 04:30:28;;;;;;;4.75;2.33;;;12.80;99.90;;;;;;3538370;40;20050;-68
2021/05/25 04:32:54;;;;;;;6.57;2.30;;;;;;;;;;3537711;40;20414;-67
2021/05/25 04:35:21;;;;;;;4.63;1.38;;;13.50;99.90;;;;;;3537975;40;20031;-67
2021/05/25 04:37:47;;;;;;;3.45;2.10;;;;;;;;;;3537708;40;20132;-67
2021/05/25 04:40:13;;;;;;;3.10;1.55;;;;;;;;;;3536701;40;20038;-68
2021/05/25 04:42:39;;;;;;;2.17;1.30;;;;;;;;;;3538480;40;20050;-68
2021/05/25 04:45:07;;;;;;;7.00;1.50;;;13.10;99.90;;;;;;3539245;40;20470;-67
2021/05/25 04:47:33;;;;;;;3.75;1.50;;;;;;;;;;3537341;40;20824;-67
2021/05/25 04:49:59;;;;;;;1.95;1.35;;;;;;;;;;3535348;40;20042;-68
2021/05/25 04:52:25;;;;;;;4.90;1.30;;;;;;;;;;3540355;40;20658;-60
2021/05/25 04:54:51;;;;;;;4.95;2.10;;;;;;;;;;3540631;40;20042;-60
2021/05/25 04:57:18;;;;;;;4.60;2.28;;;;;;;;;;3538316;40;20309;-60
2021/05/25 04:59:44;;;;;;;21.13;7.93;;;;;;;;;;3539504;40;20060;-62
2021/05/25 05:02:10;;;;;;;11.85;5.68;;;;;;;;;;3537631;40;20042;-59
2021/05/25 05:04:36;;;;;;;1.88;1.20;;;;;;;;;;3536514;40;20030;-60
2021/05/25 05:07:02;;;;;;;8.57;3.38;;;;;;;;;;3536613;40;20067;-60
2021/05/25 05:09:28;;;;;;;5.55;2.97;;;;;;;;;;3537068;40;20022;-59
2021/05/25 05:11:54;;;;;;;9.02;3.88;;;;;;;;;;3538180;40;20039;-60
2021/05/25 05:14:20;;;;;;;7.65;4.03;;;13.10;99.90;;;;;;3535555;40;20103;-59
2021/05/25 05:16:46;;;;;;;6.53;2.25;;;;;;;;;;3540960;40;20048;-60
2021/05/25 05:19:12;;;;;;;9.88;3.92;;;;;;;;;;3539381;40;20038;-59
2021/05/25 05:21:38;;;;;;;5.45;1.95;;;;;;;;;;3537090;40;20026;-60
2021/05/25 05:24:04;;;;;;;4.10;1.40;;;;;;;;;;3537414;40;20045;-60
2021/05/25 05:26:30;;;;;;;1.50;0.80;;;13.10;99.90;;;;;;3535731;40;20033;-59
2021/05/25 05:28:56;;;;;;;2.72;1.05;;;;;;;;;;3532589;40;20026;-59
2021/05/25 05:31:22;;;;;;;2.97;0.85;;;;;;;;;;3535990;40;20042;-59
2021/05/25 05:33:48;;;;;;;3.60;1.10;;;;;;;;;;3536278;40;20022;-59
2021/05/25 05:36:16;;;;;;;2.33;0.93;;;;;;;;;;3537180;40;20030;-59
2021/05/25 05:38:44;;;;;;;2.80;0.88;;;13.00;99.90;;;;;;3535276;40;20623;-59
2021/05/25 05:41:10;;;;;;;3.63;0.70;;;13.40;99.90;;;;;;3536052;40;20043;-59
2021/05/25 05:43:36;;;;;;;1.27;0.57;;;;;;;;;;3532890;40;20025;-59
2021/05/25 05:46:02;;;;;;;0.80;0.80;;;;;;;;;;3538725;40;20153;-59
2021/05/25 05:48:28;;;;;;;1.58;0.85;;;13.30;99.90;;;;;;3536976;40;20050;-59
2021/05/25 05:50:54;;;;;;;1.45;0.80;;;13.20;99.90;;;;;;3536645;40;20031;-59
2021/05/25 05:53:20;;;;;;;2.28;0.80;;;13.20;99.90;;;;;;3534867;40;20375;-59
2021/05/25 05:55:46;;;;;;;0.85;0.65;;;;;;;;;;3534854;40;20117;-59
2021/05/25 05:58:12;;;;;;;2.13;1.25;;;13.20;99.90;;;;;;3535280;40;20034;-59
2021/05/25 06:00:41;;;;;;;1.33;0.90;;;;;;;;;;3536748;40;20116;-59
2021/05/25 06:03:07;;;;;;;4.38;2.30;;;;;;;;;;3538529;40;20061;-59
2021/05/25 06:05:35;;;;;;;2.55;1.00;;;13.30;99.90;;;;;;3540010;40;20027;-59
2021/05/25 06:08:01;;;;;;;1.38;0.70;;;;;;;;;;3538929;40;20051;-59
2021/05/25 06:10:29;;;;;;;2.10;1.10;;;;;;;;;;3537626;40;20049;-60
2021/05/25 06:12:55;;;;;;;4.03;0.82;;;;;;;;;;3537848;40;20132;-60
2021/05/25 06:15:21;;;;;;;2.65;0.88;;;13.60;99.90;;;;;;3539026;40;20038;-59
2021/05/25 06:17:47;;;;;;;2.15;0.80;;;;;;;;;;3537737;40;20041;-59
2021/05/25 06:20:13;;;;;;;1.65;0.75;;;;;;;;;;3534283;40;20035;-59
2021/05/25 06:22:40;;;;;;;3.13;0.60;;;13.60;99.90;;;;;;3538198;40;20141;-59
2021/05/25 06:25:07;;;;;;;0.57;0.50;;;;;;;;;;3535432;40;20043;-59
2021/05/25 06:27:33;;;;;;;2.85;0.70;;;;;;;;;;3536353;40;20034;-59
2021/05/25 06:29:59;;;;;;;2.58;0.60;;;14.10;99.90;;;;;;3538022;40;20042;-59
2021/05/25 06:32:25;;;;;;;1.63;0.70;;;;;;;;;;3538897;40;20799;-59
2021/05/25 06:34:51;;;;;;;1.65;0.70;;;;;;;;;;3536446;40;20027;-59
2021/05/25 06:37:18;;;;;;;2.50;0.50;;;;;;;;;;3536878;40;20529;-60
2021/05/25 06:39:44;;;;;;;3.17;0.80;;;13.50;99.90;;;;;;3534152;40;20035;-60
2021/05/25 06:42:11;;;;;;;2.63;0.73;;;;;;;;;;3538855;40;20042;-60
2021/05/25 06:44:37;;;;;;;2.40;0.65;;;;;;;;;;3538774;40;20031;-60
2021/05/25 06:47:03;;;;;;;2.13;0.75;;;;;;;;;;3539031;40;20026;-60
2021/05/25 06:49:29;;;;;;;0.80;0.60;;;;;;;;;;3538102;40;20042;-59
2021/05/25 06:51:55;;;;;;;1.88;0.82;;;;;;;;;;3538219;40;20525;-59
2021/05/25 06:54:22;;;;;;;2.33;1.00;;;13.20;99.90;;;;;;3541064;40;20047;-59
2021/05/25 06:56:48;;;;;;;4.88;0.75;;;;;;;;;;3542041;40;20054;-59
2021/05/25 06:59:14;;;;;;;2.67;0.75;;;;;;;;;;3541515;40;20034;-60
2021/05/25 07:01:40;;;;;;;2.00;0.60;;;;;;;;;;3538145;40;20023;-59
2021/05/25 07:04:06;;;;;;;1.98;0.80;;;;;;;;;;3538760;40;20065;-59
2021/05/25 07:06:32;;;;;;;1.60;0.60;;;;;;;;;;3541813;40;20038;-60
2021/05/25 07:08:58;;;;;;;4.28;0.70;;;;;;;;;;3540921;40;20022;-60
2021/05/25 07:11:24;;;;;;;1.23;0.60;;;;;;;;;;3535934;40;20023;-60
2021/05/25 07:13:50;;;;;;;4.55;0.68;;;;;;;;;;3538276;40;20417;-60
2021/05/25 07:16:17;;;;;;;1.48;0.70;;;;;;;;;;3539859;40;20050;-59
2021/05/25 07:18:43;;;;;;;1.30;0.57;;;13.30;99.90;;;;;;3535750;40;20047;-59
2021/05/25 07:21:09;;;;;;;7.82;0.70;;;;;;;;;;3535053;40;20042;-60
2021/05/25 07:23:35;;;;;;;3.58;0.80;;;13.30;99.90;;;;;;3540244;40;20129;-59
2021/05/25 07:26:02;;;;;;;2.55;0.70;;;12.70;99.90;;;;;;3538712;40;20074;-61
2021/05/25 07:28:28;;;;;;;3.28;0.50;;;;;;;;;;3538053;40;20042;-59
2021/05/25 07:30:54;;;;;;;6.43;1.02;;;;;;;;;;3539252;40;20097;-60
2021/05/25 07:33:20;;;;;;;2.58;0.60;;;13.80;99.90;;;;;;3541539;40;20293;-60
2021/05/25 07:35:46;;;;;;;0.65;0.60;;;;;;;;;;3541640;40;20089;-59
2021/05/25 07:38:12;;;;;;;4.30;0.65;;;;;;;;;;3536847;40;20386;-59
2021/05/25 07:40:42;;;;;;;5.03;0.68;;;;;;;;;;3537114;40;20030;-60
2021/05/25 07:43:08;;;;;;;1.70;0.70;;;;;;;;;;3536759;40;20042;-59
2021/05/25 07:45:34;;;;;;;5.50;1.10;;;;;;;;;;3541074;40;20041;-59
2021/05/25 07:48:00;;;;;;;1.05;0.60;;;13.70;99.90;;;;;;3535757;40;20035;-60
2021/05/25 07:50:26;;;;;;;1.85;1.00;;;13.80;99.90;;;;;;3537071;40;20034;-60
2021/05/25 07:52:58;;;;;;;1.02;0.60;;;13.90;99.90;;;;;;3539108;40;20137;-60
2021/05/25 07:55:26;;;;;;;2.75;0.50;;;13.40;99.90;;;;;;3538075;40;20039;-59
2021/05/25 07:57:52;;;;;;;4.15;0.82;;;;;;;;;;3534690;40;20046;-59
2021/05/25 08:00:19;;;;;;;1.13;0.65;;;;;;;;;;3536037;40;20679;-59
2021/05/25 08:02:45;;;;;;;2.50;0.63;;;13.50;99.90;;;;;;3536787;40;20027;-60
2021/05/25 08:05:12;;;;;;;2.45;0.70;;;14.00;99.80;;;;;;3539094;40;20316;-59
2021/05/25 08:07:39;;;;;;;1.83;0.60;;;;;;;;;;3531327;40;20077;-60
2021/05/25 08:10:06;;;;;;;2.20;0.88;;;13.90;99.90;;;;;;3534567;40;20043;-60
2021/05/25 08:12:32;;;;;;;1.10;0.60;;;;;;;;;;3538427;40;20110;-60
2021/05/25 08:15:01;;;;;;;2.15;0.77;;;14.00;99.90;;;;;;3537706;40;20417;-59
2021/05/25 08:20:14;;;;;;;7.05;2.28;;;14.00;99.90;;;;;;3536811;40;20109;-59
2021/05/25 08:22:40;;;;;;;2.03;0.70;;;;;;;;;;3537090;40;20042;-59
2021/05/25 08:25:06;;;;;;;2.47;1.08;;;;;;;;;;3532674;40;20035;-60
2021/05/25 08:27:32;;;;;;;2.33;0.70;;;;;;;;;;3539697;40;20415;-60
2021/05/25 08:30:01;;;;;;;3.88;0.70;;;;;;;;;;3540477;40;20037;-59
2021/05/25 08:32:27;;;;;;;1.80;0.70;;;;;;;;;;3537548;40;20049;-60
2021/05/25 08:34:53;;;;;;;0.95;0.75;;;;;;;;;;3540582;40;20027;-60
2021/05/25 08:37:19;;;;;;;1.95;0.70;;;;;;;;;;3538859;40;20035;-59
2021/05/25 08:39:45;;;;;;;2.42;0.73;;;15.10;99.90;;;;;;3536322;40;20044;-60
2021/05/25 08:42:13;;;;;;;1.02;0.60;;;15.70;97.60;;;;;;3536891;40;20030;-59
2021/05/25 08:44:39;;;;;;;3.58;0.90;;;;;;;;;;3538954;40;20078;-59
2021/05/25 08:47:06;;;;;;;4.03;0.60;;;16.00;97.80;;;;;;3540409;40;20034;-59
2021/05/25 08:49:35;;;;;;;1.05;0.80;;;15.00;96.50;;;;;;3538942;40;20054;-60
2021/05/25 08:52:04;;;;;;;2.05;0.77;;;16.10;95.90;;;;;;3539191;40;20060;-60
2021/05/25 08:54:30;;;;;;;1.45;0.65;;;15.80;99.90;;;;;;3539322;40;20030;-59
2021/05/25 08:56:56;;;;;;;1.92;0.50;;;;;;;;;;3528366;40;20041;-60
2021/05/25 08:59:22;;;;;;;2.05;0.50;;;15.40;99.90;;;;;;3537942;40;20034;-60
2021/05/25 09:01:49;;;;;;;1.75;0.55;;;;;;;;;;3536435;40;20039;-60
2021/05/25 09:04:15;;;;;;;1.30;0.50;;;;;;;;;;3541828;40;20070;-61
2021/05/25 09:06:49;;;;;;;2.30;0.90;;;;;;;;;;3537790;40;20035;-68
2021/05/25 09:09:19;;;;;;;5.45;0.50;;;16.10;97.30;;;;;;3538167;40;20094;-67
2021/05/25 09:12:02;;;;;;;1.58;0.60;;;;;;;;;;3537587;40;20049;-67
2021/05/25 09:14:28;;;;;;;3.47;0.70;;;17.20;91.90;;;;;;3537251;40;20046;-68
2021/05/25 09:17:13;;;;;;;1.15;0.70;;;;;;;;;;3536652;40;20312;-67
2021/05/25 09:19:56;;;;;;;2.42;0.50;;;;;;;;;;3536651;40;20081;-68
2021/05/25 09:22:41;;;;;;;2.30;0.70;;;;;;;;;;3537800;40;20054;-68
2021/05/25 09:25:13;;;;;;;3.03;0.80;;;16.90;85.30;;;;;;3535739;40;20051;-68
2021/05/25 09:27:57;;;;;;;1.10;0.40;;;;;;;;;;3537587;40;20038;-68
2021/05/25 09:30:25;;;;;;;3.63;0.50;;;15.80;90.80;;;;;;3535013;40;20035;-67
2021/05/25 09:32:52;;;;;;;1.02;0.50;;;;;;;;;;3536902;40;20042;-67
2021/05/25 09:35:21;;;;;;;1.88;0.40;;;15.30;91.80;;;;;;3537130;40;20031;-67
2021/05/25 09:37:52;;;;;;;0.60;0.50;;;;;;;;;;3535312;40;20055;-67
2021/05/25 09:40:21;;;;;;;3.00;0.63;;;15.10;94.60;;;;;;3541014;40;20046;-67
2021/05/25 09:42:48;;;;;;;2.53;0.75;;;15.10;95.00;;;;;;3536845;40;20050;-68
2021/05/25 09:45:16;;;;;;;2.03;0.65;;;14.90;95.60;;;;;;3537994;40;20041;-67
2021/05/25 09:47:52;;;;;;;1.98;0.60;;;14.80;98.50;;;;;;3543018;40;20034;-69
2021/05/25 09:50:20;;;;;;;0.52;0.35;;;15.00;94.50;;;;;;3539037;40;20140;-67
2021/05/25 09:53:04;;;;;;;0.50;0.40;;;14.90;94.90;;;;;;3536508;40;20027;-68
2021/05/25 09:55:30;;;;;;;0.90;0.55;;;14.60;99.30;;;;;;3539877;40;20040;-67
2021/05/25 09:57:57;;;;;;;2.08;0.55;;;14.10;99.90;;;;;;3539125;40;20055;-68
2021/05/25 10:00:35;;;;;;;6.25;0.98;;;13.50;99.90;;;;;;3535228;40;20109;-67
2021/05/25 10:03:17;;;;;;;2.80;1.10;;;12.20;99.90;;;;;;3533860;40;20074;-67
2021/05/25 10:05:53;;;;;;;1.48;0.90;;;11.60;99.90;;;;;;3540917;40;20042;-66
2021/05/25 10:08:22;;;;;;;5.53;2.45;;;;;;;;;;3538887;40;20042;-67
2021/05/25 10:10:49;;;;;;;5.20;1.10;;;;;;;;;;3538377;40;20061;-66
2021/05/25 10:13:15;;;;;;;2.42;1.08;;;;;;;;;;3539797;40;20079;-66
2021/05/25 10:15:43;;;;;;;4.75;1.40;;;11.80;99.90;;;;;;3540782;40;20558;-66
2021/05/25 10:18:17;;;;;;;3.97;1.00;;;12.30;99.90;;;;;;3539878;40;20069;-66
2021/05/25 10:20:44;;;;;;;5.97;4.00;;;12.80;99.90;;;;;;3539720;40;20054;-66
2021/05/25 10:23:12;;;;;;;35.55;21.92;;;13.20;99.90;;;;;;3534642;40;20038;-66
2021/05/25 10:25:41;;;;;;;6.00;1.80;;;13.50;99.90;;;;;;3538616;40;20026;-66
2021/05/25 10:28:12;;;;;;;9.05;4.18;;;13.90;99.90;;;;;;3536334;40;20120;-66
2021/05/25 10:30:48;;;;;;;6.95;4.03;;;14.40;99.90;;;;;;3535990;40;20042;-61
2021/05/25 10:33:17;;;;;;;4.20;2.65;;;15.10;99.90;;;;;;3539102;40;20043;-61
2021/05/25 10:35:58;;;;;;;6.15;1.30;;;15.50;99.90;;;;;;3538452;40;20129;-61
2021/05/25 10:38:31;;;;;;;4.50;0.95;;;15.90;99.90;;;;;;3539735;40;20073;-61
2021/05/25 10:41:00;;;;;;;1.95;0.85;;;16.50;99.90;;;;;;3542003;40;20038;-61
2021/05/25 10:43:32;;;;;;;3.83;1.20;;;17.00;99.90;;;;;;3541583;40;20039;-61
2021/05/25 10:46:10;;;;;;;3.38;1.40;;;17.10;99.90;;;;;;3537580;40;20045;-61
2021/05/25 10:51:54;;;;;;;1.55;0.90;;;16.60;99.90;;;;;;3541334;40;20085;-61
2021/05/25 10:54:30;;;;;;;3.97;1.13;;;16.30;99.90;;;;;;3543452;40;20324;-61
2021/05/25 10:57:25;;;;;;;1.05;0.68;;;16.70;99.90;;;;;;3536972;40;20181;-61
2021/05/25 11:00:00;;;;;;;3.67;0.70;;;17.30;99.90;;;;;;3539041;40;20140;-61
2021/05/25 11:02:44;;;;;;;3.80;2.30;;;18.00;99.90;;;;;;3539878;40;20042;-61
2021/05/25 11:05:32;;;;;;;3.13;0.85;;;18.40;99.90;;;;;;3539855;40;20034;-61
2021/05/25 11:08:10;;;;;;;3.65;2.90;;;17.90;99.90;;;;;;3542494;40;20097;-61
2021/05/25 11:10:37;;;;;;;3.85;0.80;;;17.20;99.90;;;;;;3539684;40;20035;-60
2021/05/25 11:13:18;;;;;;;3.05;2.40;;;17.00;99.90;;;;;;3538673;40;20180;-59
2021/05/25 11:16:20;;;;;;;3.33;1.83;;;16.30;99.90;;;;;;3540814;40;20801;-60
2021/05/25 11:19:00;;;;;;;3.38;1.35;;;;;;;;;;3536539;40;20042;-60
2021/05/25 11:24:31;;;;;;;4.22;1.45;;;17.40;99.90;;;;;;3538259;40;20298;-60
2021/05/25 11:27:04;;;;;;;1.25;0.40;;;17.20;93.30;;;;;;3538848;40;20448;-61
2021/05/25 11:29:30;;;;;;;1.38;0.88;;;;;;;;;;3540775;40;20491;-61
2021/05/25 11:31:59;;;;;;;1.88;0.70;;;17.30;90.50;;;;;;3541355;40;20144;-61
2021/05/25 11:34:26;;;;;;;4.70;0.50;;;17.50;91.90;;;;;;3534499;40;20039;-61
2021/05/25 11:37:01;;;;;;;1.40;0.50;;;16.30;93.60;;;;;;3538272;40;20051;-61
2021/05/25 11:39:29;;;;;;;0.50;0.40;;;16.00;93.40;;;;;;3536787;40;20038;-61
2021/05/25 11:41:57;;;;;;;6.22;0.45;;;16.00;94.60;;;;;;3540006;40;20038;-61
2021/05/25 11:44:30;;;;;;;2.53;0.55;;;;;;;;;;3540952;40;20105;-60
2021/05/25 11:46:56;;;;;;;0.90;0.40;;;;;;;;;;3542563;40;20039;-60
2021/05/25 11:49:23;;;;;;;1.08;0.50;;;;;;;;;;3538382;40;20035;-61
2021/05/25 11:51:49;;;;;;;1.48;0.50;;;;;;;;;;3540038;40;20491;-61
2021/05/25 11:54:21;;;;;;;2.65;0.60;;;;;;;;;;3538556;40;20031;-61
2021/05/25 11:56:50;;;;;;;3.55;1.35;;;19.40;86.00;;;;;;3537746;40;20084;-61
2021/05/25 11:59:21;;;;;;;2.83;0.50;;;18.00;91.70;;;;;;3539224;40;20026;-61
2021/05/25 12:01:50;;;;;;;0.80;0.60;;;;;;;;;;3535924;40;20035;-61
2021/05/25 12:04:17;;;;;;;1.98;0.98;;;15.30;92.50;;;;;;3537739;40;20418;-61
2021/05/25 12:06:51;;;;;;;0.93;0.80;;;;;;;;;;3538033;40;20045;-62
2021/05/25 12:09:18;;;;;;;1.63;1.13;;;16.90;90.40;;;;;;3540371;40;20413;-61
2021/05/25 12:11:47;;;;;;;11.23;1.50;;;16.90;90.20;;;;;;3534669;40;20761;-61
2021/05/25 12:14:15;;;;;;;7.60;2.70;;;17.00;87.60;;;;;;3537537;40;20050;-61
2021/05/25 12:16:42;;;;;;;1.42;0.93;;;16.90;86.50;;;;;;3539290;40;20042;-61
2021/05/25 12:19:09;;;;;;;0.93;0.68;;;;;;;;;;3538063;40;20062;-61
2021/05/25 12:21:35;;;;;;;1.10;0.57;;;;;;;;;;3533538;40;20553;-61
2021/05/25 12:24:02;;;;;;;1.73;0.90;;;;;;;;;;3536688;40;20530;-61
2021/05/25 12:26:28;;;;;;;4.07;1.55;;;;;;;;;;3538244;40;20034;-61
2021/05/25 12:28:55;;;;;;;2.45;1.15;;;;;;;;;;3536762;40;20045;-61
2021/05/25 12:31:22;;;;;;;6.18;2.30;;;;;;;;;;3536734;40;20042;-61
2021/05/25 12:33:49;;;;;;;3.53;1.08;;;;;;;;;;3539521;40;20156;-60
2021/05/25 12:36:19;;;;;;;4.63;0.40;;;;;;;;;;3540013;40;20598;-60
2021/05/25 12:39:00;;;;;;;2.00;0.65;;;;;;;;;;3538911;40;20086;-60
2021/05/25 12:41:27;;;;;;;5.68;0.43;;;;;;;;;;3538036;40;20045;-60
2021/05/25 12:44:13;;;;;;;1.52;0.60;;;12.10;99.90;;;;;;3538645;40;20146;-61
2021/05/25 12:47:05;;;;;;;2.40;0.40;;;12.60;99.90;;;;;;3535403;40;20031;-61
2021/05/25 12:49:37;;;;;;;5.43;0.50;;;13.00;99.90;;;;;;3540662;40;20043;-61
2021/05/25 12:52:21;;;;;;;5.53;2.30;;;14.20;99.90;;;;;;3539470;40;20102;-61
2021/05/25 12:54:57;;;;;;;4.88;1.90;;;15.50;99.90;;;;;;3537271;40;20115;-61
2021/05/25 12:57:40;;;;;;;0.75;0.45;;;17.60;99.10;;;;;;3537030;40;20120;-61
2021/05/25 13:00:07;;;;;;;1.15;0.60;;;18.40;94.40;;;;;;3541222;40;20113;-61
2021/05/25 13:02:46;;;;;;;2.65;2.45;;;18.10;93.60;;;;;;3539605;40;20031;-61
2021/05/25 13:05:14;;;;;;;3.72;1.20;;;17.70;95.80;;;;;;3537974;40;20324;-61
2021/05/25 13:08:11;;;;;;;2.58;2.30;;;17.40;95.80;;;;;;3533850;40;20039;-61
2021/05/25 13:10:51;;;;;;;0.80;0.75;;;;;;;;;;3534546;40;20047;-61
2021/05/25 13:13:19;;;;;;;0.95;0.80;;;;;;;;;;3532448;40;20147;-61
2021/05/25 13:15:49;;;;;;;11.93;0.77;;;18.40;95.60;;;;;;3538304;40;20042;-61
2021/05/25 13:18:20;;;;;;;1.27;0.60;;;17.70;95.20;;;;;;3535832;40;20078;-61
2021/05/25 13:20:48;;;;;;;1.33;1.00;;;;;;;;;;3535142;40;20195;-61
2021/05/25 13:23:31;;;;;;;2.10;1.42;;;16.40;97.10;;;;;;3537359;40;20038;-61
2021/05/25 13:26:16;;;;;;;5.03;2.05;;;;;;;;;;3532589;40;20086;-61
2021/05/25 13:28:48;;;;;;;0.70;0.70;;;;;;;;;;3539420;40;20078;-61
2021/05/25 13:31:18;;;;;;;4.82;0.60;;;;;;;;;;3539447;40;20038;-61
2021/05/25 13:33:44;;;;;;;1.17;0.40;;;;;;;;;;3536052;40;20443;-61
2021/05/25 13:36:10;;;;;;;6.03;0.40;;;;;;;;;;3538102;40;20046;-61
2021/05/25 13:38:37;;;;;;;0.30;0.30;;;;;;;;;;3539089;40;20046;-61
2021/05/25 13:41:03;;;;;;;0.98;0.20;;;;;;;;;;3537683;40;20133;-61
2021/05/25 13:43:29;;;;;;;2.17;0.40;;;;;;;;;;3536213;40;20044;-61
2021/05/25 13:45:55;;;;;;;2.53;0.20;;;;;;;;;;3537664;40;20490;-61
2021/05/25 13:48:21;;;;;;;0.55;0.20;;;;;;;;;;3540867;40;20074;-61
2021/05/25 13:50:47;;;;;;;0.52;0.40;;;;;;;;;;3536924;40;20041;-61
2021/05/25 13:53:13;;;;;;;3.10;0.30;;;;;;;;;;3534506;40;20054;-61
2021/05/25 13:55:40;;;;;;;3.58;0.57;;;;;;;;;;3534556;40;20034;-61
2021/05/25 13:58:07;;;;;;;3.60;0.40;;;;;;;;;;3538571;40;20049;-61
2021/05/25 14:01:33;;;;;;;1.90;0.40;;;;;;;;;;3539827;40;20083;-66
2021/05/25 14:03:28;;;;;;;0.87;0.63;;;;;;;;;;3532963;40;20034;-67
2021/05/25 14:05:54;;;;;;;1.23;0.60;;;;;;;;;;3539150;40;20035;-68
2021/05/25 14:08:20;;;;;;;3.63;0.90;;;;;;;;;;3538428;40;20035;-67
2021/05/25 14:10:46;;;;;;;2.45;0.75;;;;;;;;;;3535969;40;20043;-67